sensor_id;sensor_type;location;lat;lon;timestamp;P1;durP1;ratioP1;P2;durP2;ratioP2
52674;SDS011;38569;52.722;6.440;2023-05-24T00:01:27;23.80;;;6.55;;
52674;SDS011;38569;52.722;6.440;2023-05-24T00:03:53;23.05;;;5.85;;
52674;SDS011;38569;52.722;6.440;2023-05-24T00:06:25;21.77;;;6.20;;
52674;SDS011;38569;52.722;6.440;2023-05-24T00:08:52;27.63;;;7.03;;
52674;SDS011;38569;52.722;6.440;2023-05-24T00:11:18;27.55;;;6.50;;
52674;SDS011;38569;52.722;6.440;2023-05-24T00:13:45;29.60;;;7.25;;
52674;SDS011;38569;52.722;6.440;2023-05-24T00:16:11;32.88;;;7.25;;
52674;SDS011;38569;52.722;6.440;2023-05-24T00:18:36;34.45;;;7.45;;
52674;SDS011;38569;52.722;6.440;2023-05-24T00:21:06;25.38;;;7.25;;
52674;SDS011;38569;52.722;6.440;2023-05-24T00:23:32;21.77;;;7.20;;
52674;SDS011;38569;52.722;6.440;2023-05-24T00:25:59;32.00;;;6.93;;
52674;SDS011;38569;52.722;6.440;2023-05-24T00:28:25;21.17;;;6.85;;
52674;SDS011;38569;52.722;6.440;2023-05-24T00:30:51;26.95;;;6.30;;
52674;SDS011;38569;52.722;6.440;2023-05-24T00:33:17;23.90;;;6.78;;
52674;SDS011;38569;52.722;6.440;2023-05-24T00:35:43;21.02;;;6.45;;
52674;SDS011;38569;52.722;6.440;2023-05-24T00:38:09;22.65;;;7.97;;
52674;SDS011;38569;52.722;6.440;2023-05-24T00:40:35;36.67;;;8.27;;
52674;SDS011;38569;52.722;6.440;2023-05-24T00:43:00;27.75;;;6.93;;
52674;SDS011;38569;52.722;6.440;2023-05-24T00:45:26;21.17;;;5.90;;
52674;SDS011;38569;52.722;6.440;2023-05-24T00:47:52;25.05;;;6.90;;
52674;SDS011;38569;52.722;6.440;2023-05-24T00:50:18;26.52;;;7.00;;
52674;SDS011;38569;52.722;6.440;2023-05-24T00:52:45;21.77;;;6.30;;
52674;SDS011;38569;52.722;6.440;2023-05-24T00:55:13;26.48;;;6.70;;
52674;SDS011;38569;52.722;6.440;2023-05-24T00:57:39;24.30;;;6.70;;
52674;SDS011;38569;52.722;6.440;2023-05-24T01:00:05;24.65;;;6.93;;
52674;SDS011;38569;52.722;6.440;2023-05-24T01:02:32;22.65;;;7.72;;
52674;SDS011;38569;52.722;6.440;2023-05-24T01:04:58;25.23;;;6.80;;
52674;SDS011;38569;52.722;6.440;2023-05-24T01:08:08;26.33;;;6.38;;
52674;SDS011;38569;52.722;6.440;2023-05-24T01:10:50;26.02;;;6.95;;
52674;SDS011;38569;52.722;6.440;2023-05-24T01:13:35;28.17;;;7.75;;
52674;SDS011;38569;52.722;6.440;2023-05-24T01:16:30;19.88;;;7.18;;
52674;SDS011;38569;52.722;6.440;2023-05-24T01:19:21;32.80;;;9.02;;
52674;SDS011;38569;52.722;6.440;2023-05-24T01:25:19;24.33;;;6.43;;
52674;SDS011;38569;52.722;6.440;2023-05-24T01:27:47;33.22;;;7.63;;
52674;SDS011;38569;52.722;6.440;2023-05-24T01:30:14;33.50;;;8.75;;
52674;SDS011;38569;52.722;6.440;2023-05-24T01:32:41;31.58;;;7.80;;
52674;SDS011;38569;52.722;6.440;2023-05-24T01:35:07;23.50;;;8.68;;
52674;SDS011;38569;52.722;6.440;2023-05-24T01:37:33;20.08;;;6.22;;
52674;SDS011;38569;52.722;6.440;2023-05-24T01:39:59;25.80;;;6.80;;
52674;SDS011;38569;52.722;6.440;2023-05-24T01:42:34;31.35;;;8.93;;
52674;SDS011;38569;52.722;6.440;2023-05-24T01:45:14;32.30;;;7.63;;
52674;SDS011;38569;52.722;6.440;2023-05-24T01:47:58;22.98;;;6.60;;
52674;SDS011;38569;52.722;6.440;2023-05-24T01:50:45;23.02;;;7.72;;
52674;SDS011;38569;52.722;6.440;2023-05-24T01:53:16;28.73;;;6.75;;
52674;SDS011;38569;52.722;6.440;2023-05-24T01:55:43;22.63;;;6.32;;
52674;SDS011;38569;52.722;6.440;2023-05-24T01:58:15;37.92;;;9.48;;
52674;SDS011;38569;52.722;6.440;2023-05-24T02:00:41;24.98;;;7.50;;
52674;SDS011;38569;52.722;6.440;2023-05-24T02:03:08;27.08;;;7.13;;
52674;SDS011;38569;52.722;6.440;2023-05-24T02:05:35;28.60;;;7.45;;
52674;SDS011;38569;52.722;6.440;2023-05-24T02:08:03;27.23;;;7.50;;
52674;SDS011;38569;52.722;6.440;2023-05-24T02:10:28;28.60;;;8.07;;
52674;SDS011;38569;52.722;6.440;2023-05-24T02:12:54;32.53;;;7.53;;
52674;SDS011;38569;52.722;6.440;2023-05-24T02:15:20;26.10;;;6.93;;
52674;SDS011;38569;52.722;6.440;2023-05-24T02:17:45;23.80;;;6.82;;
52674;SDS011;38569;52.722;6.440;2023-05-24T02:20:12;38.63;;;8.27;;
52674;SDS011;38569;52.722;6.440;2023-05-24T02:22:39;26.17;;;8.45;;
52674;SDS011;38569;52.722;6.440;2023-05-24T02:25:05;31.10;;;6.93;;
52674;SDS011;38569;52.722;6.440;2023-05-24T02:27:32;28.08;;;7.05;;
52674;SDS011;38569;52.722;6.440;2023-05-24T02:29:57;24.63;;;7.88;;
52674;SDS011;38569;52.722;6.440;2023-05-24T02:32:23;26.45;;;7.90;;
52674;SDS011;38569;52.722;6.440;2023-05-24T02:34:49;31.02;;;7.25;;
52674;SDS011;38569;52.722;6.440;2023-05-24T02:37:14;47.17;;;8.23;;
52674;SDS011;38569;52.722;6.440;2023-05-24T02:39:40;27.70;;;7.85;;
52674;SDS011;38569;52.722;6.440;2023-05-24T02:42:06;28.17;;;7.50;;
52674;SDS011;38569;52.722;6.440;2023-05-24T02:44:33;20.30;;;6.15;;
52674;SDS011;38569;52.722;6.440;2023-05-24T02:46:59;30.95;;;7.85;;
52674;SDS011;38569;52.722;6.440;2023-05-24T02:49:24;30.83;;;6.88;;
52674;SDS011;38569;52.722;6.440;2023-05-24T02:51:50;25.40;;;8.30;;
52674;SDS011;38569;52.722;6.440;2023-05-24T02:54:17;30.63;;;8.75;;
52674;SDS011;38569;52.722;6.440;2023-05-24T02:56:42;31.45;;;7.28;;
52674;SDS011;38569;52.722;6.440;2023-05-24T02:59:08;24.80;;;8.07;;
52674;SDS011;38569;52.722;6.440;2023-05-24T03:01:35;38.65;;;8.65;;
52674;SDS011;38569;52.722;6.440;2023-05-24T03:04:01;27.92;;;7.85;;
52674;SDS011;38569;52.722;6.440;2023-05-24T03:06:26;30.20;;;8.80;;
52674;SDS011;38569;52.722;6.440;2023-05-24T03:08:52;22.90;;;6.15;;
52674;SDS011;38569;52.722;6.440;2023-05-24T03:11:18;25.17;;;7.53;;
52674;SDS011;38569;52.722;6.440;2023-05-24T03:13:46;34.70;;;8.38;;
52674;SDS011;38569;52.722;6.440;2023-05-24T03:16:13;22.10;;;7.90;;
52674;SDS011;38569;52.722;6.440;2023-05-24T03:18:38;21.17;;;6.75;;
52674;SDS011;38569;52.722;6.440;2023-05-24T03:21:05;29.75;;;7.43;;
52674;SDS011;38569;52.722;6.440;2023-05-24T03:23:31;27.00;;;7.25;;
52674;SDS011;38569;52.722;6.440;2023-05-24T03:25:57;25.17;;;8.82;;
52674;SDS011;38569;52.722;6.440;2023-05-24T03:28:23;25.20;;;7.65;;
52674;SDS011;38569;52.722;6.440;2023-05-24T03:30:48;35.20;;;9.93;;
52674;SDS011;38569;52.722;6.440;2023-05-24T03:33:14;27.52;;;7.72;;
52674;SDS011;38569;52.722;6.440;2023-05-24T03:35:40;22.10;;;7.22;;
52674;SDS011;38569;52.722;6.440;2023-05-24T03:38:06;35.45;;;7.30;;
52674;SDS011;38569;52.722;6.440;2023-05-24T03:40:31;30.63;;;9.50;;
52674;SDS011;38569;52.722;6.440;2023-05-24T03:42:58;22.25;;;7.93;;
52674;SDS011;38569;52.722;6.440;2023-05-24T03:45:24;26.27;;;7.97;;
52674;SDS011;38569;52.722;6.440;2023-05-24T03:47:50;34.60;;;7.55;;
52674;SDS011;38569;52.722;6.440;2023-05-24T03:50:15;25.88;;;7.13;;
52674;SDS011;38569;52.722;6.440;2023-05-24T03:52:41;41.05;;;8.13;;
52674;SDS011;38569;52.722;6.440;2023-05-24T03:55:07;33.05;;;7.80;;
52674;SDS011;38569;52.722;6.440;2023-05-24T03:57:33;26.15;;;8.10;;
52674;SDS011;38569;52.722;6.440;2023-05-24T03:59:59;23.83;;;7.18;;
52674;SDS011;38569;52.722;6.440;2023-05-24T04:02:25;36.33;;;9.90;;
52674;SDS011;38569;52.722;6.440;2023-05-24T04:04:50;29.33;;;8.02;;
52674;SDS011;38569;52.722;6.440;2023-05-24T04:07:17;27.65;;;7.57;;
52674;SDS011;38569;52.722;6.440;2023-05-24T04:09:43;24.08;;;7.10;;
52674;SDS011;38569;52.722;6.440;2023-05-24T04:12:09;18.42;;;6.38;;
52674;SDS011;38569;52.722;6.440;2023-05-24T04:14:35;37.00;;;9.45;;
52674;SDS011;38569;52.722;6.440;2023-05-24T04:17:01;28.00;;;8.07;;
52674;SDS011;38569;52.722;6.440;2023-05-24T04:19:29;35.10;;;7.25;;
52674;SDS011;38569;52.722;6.440;2023-05-24T04:21:55;24.77;;;6.70;;
52674;SDS011;38569;52.722;6.440;2023-05-24T04:24:21;20.38;;;7.55;;
52674;SDS011;38569;52.722;6.440;2023-05-24T04:26:47;19.73;;;6.20;;
52674;SDS011;38569;52.722;6.440;2023-05-24T04:29:13;25.88;;;7.43;;
52674;SDS011;38569;52.722;6.440;2023-05-24T04:31:42;23.80;;;6.82;;
52674;SDS011;38569;52.722;6.440;2023-05-24T04:34:09;26.20;;;7.07;;
52674;SDS011;38569;52.722;6.440;2023-05-24T04:36:37;35.80;;;7.60;;
52674;SDS011;38569;52.722;6.440;2023-05-24T04:39:03;24.80;;;7.07;;
52674;SDS011;38569;52.722;6.440;2023-05-24T04:41:29;32.95;;;8.05;;
52674;SDS011;38569;52.722;6.440;2023-05-24T04:43:56;20.92;;;6.05;;
52674;SDS011;38569;52.722;6.440;2023-05-24T04:46:24;27.70;;;7.30;;
52674;SDS011;38569;52.722;6.440;2023-05-24T04:48:51;26.83;;;7.65;;
52674;SDS011;38569;52.722;6.440;2023-05-24T04:51:17;26.63;;;6.70;;
52674;SDS011;38569;52.722;6.440;2023-05-24T04:53:43;22.38;;;6.15;;
52674;SDS011;38569;52.722;6.440;2023-05-24T04:56:09;29.00;;;6.55;;
52674;SDS011;38569;52.722;6.440;2023-05-24T04:58:34;27.73;;;7.07;;
52674;SDS011;38569;52.722;6.440;2023-05-24T05:01:00;23.90;;;7.30;;
52674;SDS011;38569;52.722;6.440;2023-05-24T05:03:26;32.78;;;8.13;;
52674;SDS011;38569;52.722;6.440;2023-05-24T05:05:52;19.15;;;5.60;;
52674;SDS011;38569;52.722;6.440;2023-05-24T05:08:18;27.85;;;6.60;;
52674;SDS011;38569;52.722;6.440;2023-05-24T05:10:44;23.77;;;6.25;;
52674;SDS011;38569;52.722;6.440;2023-05-24T05:13:10;18.80;;;5.78;;
52674;SDS011;38569;52.722;6.440;2023-05-24T05:15:36;22.40;;;5.78;;
52674;SDS011;38569;52.722;6.440;2023-05-24T05:18:01;24.13;;;5.80;;
52674;SDS011;38569;52.722;6.440;2023-05-24T05:20:27;27.73;;;5.72;;
52674;SDS011;38569;52.722;6.440;2023-05-24T05:22:53;27.08;;;6.03;;
52674;SDS011;38569;52.722;6.440;2023-05-24T05:25:19;31.38;;;6.93;;
52674;SDS011;38569;52.722;6.440;2023-05-24T05:27:45;21.15;;;7.38;;
52674;SDS011;38569;52.722;6.440;2023-05-24T05:30:11;20.83;;;5.78;;
52674;SDS011;38569;52.722;6.440;2023-05-24T05:32:36;28.88;;;6.35;;
52674;SDS011;38569;52.722;6.440;2023-05-24T05:35:02;29.98;;;7.00;;
52674;SDS011;38569;52.722;6.440;2023-05-24T05:37:29;22.08;;;5.65;;
52674;SDS011;38569;52.722;6.440;2023-05-24T05:39:55;24.77;;;7.28;;
52674;SDS011;38569;52.722;6.440;2023-05-24T05:42:21;32.67;;;6.15;;
52674;SDS011;38569;52.722;6.440;2023-05-24T05:44:46;22.98;;;5.95;;
52674;SDS011;38569;52.722;6.440;2023-05-24T05:47:12;26.27;;;5.97;;
52674;SDS011;38569;52.722;6.440;2023-05-24T05:49:38;21.88;;;6.20;;
52674;SDS011;38569;52.722;6.440;2023-05-24T05:52:04;20.45;;;5.50;;
52674;SDS011;38569;52.722;6.440;2023-05-24T05:54:30;21.30;;;4.65;;
52674;SDS011;38569;52.722;6.440;2023-05-24T05:56:56;24.25;;;5.82;;
52674;SDS011;38569;52.722;6.440;2023-05-24T05:59:22;29.05;;;6.80;;
52674;SDS011;38569;52.722;6.440;2023-05-24T06:01:48;19.80;;;6.10;;
52674;SDS011;38569;52.722;6.440;2023-05-24T06:04:14;20.08;;;4.80;;
52674;SDS011;38569;52.722;6.440;2023-05-24T06:06:40;19.67;;;5.25;;
52674;SDS011;38569;52.722;6.440;2023-05-24T06:09:06;27.15;;;6.93;;
52674;SDS011;38569;52.722;6.440;2023-05-24T06:11:32;14.15;;;4.40;;
52674;SDS011;38569;52.722;6.440;2023-05-24T06:13:58;22.17;;;6.65;;
52674;SDS011;38569;52.722;6.440;2023-05-24T06:16:24;14.80;;;5.03;;
52674;SDS011;38569;52.722;6.440;2023-05-24T06:18:49;24.58;;;6.18;;
52674;SDS011;38569;52.722;6.440;2023-05-24T06:21:15;26.88;;;6.63;;
52674;SDS011;38569;52.722;6.440;2023-05-24T06:23:41;20.25;;;5.28;;
52674;SDS011;38569;52.722;6.440;2023-05-24T06:26:08;21.73;;;6.05;;
52674;SDS011;38569;52.722;6.440;2023-05-24T06:28:37;16.50;;;5.47;;
52674;SDS011;38569;52.722;6.440;2023-05-24T06:31:06;22.75;;;5.53;;
52674;SDS011;38569;52.722;6.440;2023-05-24T06:33:32;16.40;;;5.05;;
52674;SDS011;38569;52.722;6.440;2023-05-24T06:35:57;20.83;;;4.85;;
52674;SDS011;38569;52.722;6.440;2023-05-24T06:38:23;21.10;;;5.72;;
52674;SDS011;38569;52.722;6.440;2023-05-24T06:40:49;20.67;;;4.95;;
52674;SDS011;38569;52.722;6.440;2023-05-24T06:43:15;26.67;;;6.13;;
52674;SDS011;38569;52.722;6.440;2023-05-24T06:45:41;16.80;;;4.45;;
52674;SDS011;38569;52.722;6.440;2023-05-24T06:48:07;21.40;;;5.10;;
52674;SDS011;38569;52.722;6.440;2023-05-24T06:50:33;20.55;;;5.90;;
52674;SDS011;38569;52.722;6.440;2023-05-24T06:53:00;21.02;;;5.78;;
52674;SDS011;38569;52.722;6.440;2023-05-24T06:55:26;16.42;;;5.15;;
52674;SDS011;38569;52.722;6.440;2023-05-24T06:57:52;18.35;;;5.53;;
52674;SDS011;38569;52.722;6.440;2023-05-24T07:00:18;20.10;;;4.50;;
52674;SDS011;38569;52.722;6.440;2023-05-24T07:02:45;20.08;;;6.22;;
52674;SDS011;38569;52.722;6.440;2023-05-24T07:05:11;16.25;;;4.40;;
52674;SDS011;38569;52.722;6.440;2023-05-24T07:07:37;17.52;;;4.82;;
52674;SDS011;38569;52.722;6.440;2023-05-24T07:10:04;17.10;;;5.53;;
52674;SDS011;38569;52.722;6.440;2023-05-24T07:12:35;11.52;;;4.38;;
52674;SDS011;38569;52.722;6.440;2023-05-24T07:15:04;18.15;;;4.43;;
52674;SDS011;38569;52.722;6.440;2023-05-24T07:17:31;15.23;;;5.50;;
52674;SDS011;38569;52.722;6.440;2023-05-24T07:19:57;20.45;;;5.75;;
52674;SDS011;38569;52.722;6.440;2023-05-24T07:22:23;15.93;;;5.13;;
52674;SDS011;38569;52.722;6.440;2023-05-24T07:24:51;13.23;;;4.25;;
52674;SDS011;38569;52.722;6.440;2023-05-24T07:27:16;16.42;;;5.57;;
52674;SDS011;38569;52.722;6.440;2023-05-24T07:29:42;13.85;;;4.88;;
52674;SDS011;38569;52.722;6.440;2023-05-24T07:32:08;15.40;;;4.65;;
52674;SDS011;38569;52.722;6.440;2023-05-24T07:34:33;13.90;;;4.32;;
52674;SDS011;38569;52.722;6.440;2023-05-24T07:37:00;13.70;;;4.65;;
52674;SDS011;38569;52.722;6.440;2023-05-24T07:39:26;20.58;;;5.25;;
52674;SDS011;38569;52.722;6.440;2023-05-24T07:41:52;16.27;;;3.85;;
52674;SDS011;38569;52.722;6.440;2023-05-24T07:44:18;17.13;;;4.10;;
52674;SDS011;38569;52.722;6.440;2023-05-24T07:46:44;16.83;;;5.88;;
52674;SDS011;38569;52.722;6.440;2023-05-24T07:49:10;18.92;;;4.50;;
52674;SDS011;38569;52.722;6.440;2023-05-24T07:51:36;21.90;;;4.97;;
52674;SDS011;38569;52.722;6.440;2023-05-24T07:54:03;11.10;;;3.92;;
52674;SDS011;38569;52.722;6.440;2023-05-24T07:56:29;15.50;;;4.72;;
52674;SDS011;38569;52.722;6.440;2023-05-24T07:58:54;13.15;;;2.88;;
52674;SDS011;38569;52.722;6.440;2023-05-24T08:01:35;10.48;;;3.67;;
52674;SDS011;38569;52.722;6.440;2023-05-24T08:04:02;14.63;;;4.28;;
52674;SDS011;38569;52.722;6.440;2023-05-24T08:06:31;11.32;;;3.63;;
52674;SDS011;38569;52.722;6.440;2023-05-24T08:08:56;12.68;;;3.40;;
52674;SDS011;38569;52.722;6.440;2023-05-24T08:11:22;14.30;;;4.38;;
52674;SDS011;38569;52.722;6.440;2023-05-24T08:13:48;12.35;;;3.78;;
52674;SDS011;38569;52.722;6.440;2023-05-24T08:16:14;12.65;;;3.65;;
52674;SDS011;38569;52.722;6.440;2023-05-24T08:18:40;12.85;;;4.22;;
52674;SDS011;38569;52.722;6.440;2023-05-24T08:21:05;10.90;;;4.00;;
52674;SDS011;38569;52.722;6.440;2023-05-24T08:23:32;6.90;;;2.42;;
52674;SDS011;38569;52.722;6.440;2023-05-24T08:25:58;14.82;;;3.78;;
52674;SDS011;38569;52.722;6.440;2023-05-24T08:28:25;11.32;;;3.17;;
52674;SDS011;38569;52.722;6.440;2023-05-24T08:30:51;10.73;;;3.78;;
52674;SDS011;38569;52.722;6.440;2023-05-24T08:33:16;8.68;;;3.28;;
52674;SDS011;38569;52.722;6.440;2023-05-24T08:35:42;14.73;;;2.85;;
52674;SDS011;38569;52.722;6.440;2023-05-24T08:38:08;14.45;;;3.05;;
52674;SDS011;38569;52.722;6.440;2023-05-24T08:40:34;13.18;;;4.15;;
52674;SDS011;38569;52.722;6.440;2023-05-24T08:43:00;9.27;;;2.20;;
52674;SDS011;38569;52.722;6.440;2023-05-24T08:45:28;9.40;;;2.85;;
52674;SDS011;38569;52.722;6.440;2023-05-24T08:47:55;8.88;;;3.38;;
52674;SDS011;38569;52.722;6.440;2023-05-24T08:50:22;14.98;;;3.92;;
52674;SDS011;38569;52.722;6.440;2023-05-24T08:52:48;10.13;;;3.80;;
52674;SDS011;38569;52.722;6.440;2023-05-24T08:55:15;11.80;;;3.50;;
52674;SDS011;38569;52.722;6.440;2023-05-24T08:57:41;13.00;;;4.72;;
52674;SDS011;38569;52.722;6.440;2023-05-24T09:00:10;13.05;;;3.55;;
52674;SDS011;38569;52.722;6.440;2023-05-24T09:02:40;11.77;;;2.97;;
52674;SDS011;38569;52.722;6.440;2023-05-24T09:05:08;9.77;;;3.28;;
52674;SDS011;38569;52.722;6.440;2023-05-24T09:07:35;11.40;;;3.58;;
52674;SDS011;38569;52.722;6.440;2023-05-24T09:10:05;9.45;;;3.13;;
52674;SDS011;38569;52.722;6.440;2023-05-24T09:12:32;9.25;;;2.97;;
52674;SDS011;38569;52.722;6.440;2023-05-24T09:15:00;7.88;;;3.05;;
52674;SDS011;38569;52.722;6.440;2023-05-24T09:17:27;8.68;;;3.25;;
52674;SDS011;38569;52.722;6.440;2023-05-24T09:19:54;10.95;;;4.00;;
52674;SDS011;38569;52.722;6.440;2023-05-24T09:22:23;9.05;;;3.40;;
52674;SDS011;38569;52.722;6.440;2023-05-24T09:24:52;6.95;;;3.50;;
52674;SDS011;38569;52.722;6.440;2023-05-24T09:27:25;7.78;;;2.55;;
52674;SDS011;38569;52.722;6.440;2023-05-24T09:29:52;10.13;;;2.60;;
52674;SDS011;38569;52.722;6.440;2023-05-24T09:32:19;8.73;;;2.47;;
52674;SDS011;38569;52.722;6.440;2023-05-24T09:34:51;9.50;;;2.90;;
52674;SDS011;38569;52.722;6.440;2023-05-24T09:37:19;10.13;;;2.50;;
52674;SDS011;38569;52.722;6.440;2023-05-24T09:39:47;8.68;;;2.63;;
52674;SDS011;38569;52.722;6.440;2023-05-24T09:42:17;7.28;;;3.13;;
52674;SDS011;38569;52.722;6.440;2023-05-24T09:45:09;6.57;;;1.73;;
52674;SDS011;38569;52.722;6.440;2023-05-24T09:47:36;8.63;;;2.92;;
52674;SDS011;38569;52.722;6.440;2023-05-24T09:50:05;11.98;;;3.85;;
52674;SDS011;38569;52.722;6.440;2023-05-24T09:55:18;6.45;;;2.60;;
52674;SDS011;38569;52.722;6.440;2023-05-24T09:58:01;9.43;;;3.67;;
52674;SDS011;38569;52.722;6.440;2023-05-24T10:00:28;10.90;;;3.97;;
52674;SDS011;38569;52.722;6.440;2023-05-24T10:03:01;10.52;;;2.70;;
52674;SDS011;38569;52.722;6.440;2023-05-24T10:05:29;13.13;;;3.05;;
52674;SDS011;38569;52.722;6.440;2023-05-24T10:07:58;8.73;;;3.20;;
52674;SDS011;38569;52.722;6.440;2023-05-24T10:10:28;8.65;;;3.65;;
52674;SDS011;38569;52.722;6.440;2023-05-24T10:12:56;8.65;;;2.67;;
52674;SDS011;38569;52.722;6.440;2023-05-24T10:15:23;9.00;;;3.13;;
52674;SDS011;38569;52.722;6.440;2023-05-24T10:17:50;4.82;;;1.77;;
52674;SDS011;38569;52.722;6.440;2023-05-24T10:20:16;10.05;;;3.45;;
52674;SDS011;38569;52.722;6.440;2023-05-24T10:22:44;7.65;;;3.42;;
52674;SDS011;38569;52.722;6.440;2023-05-24T10:25:14;9.93;;;3.55;;
52674;SDS011;38569;52.722;6.440;2023-05-24T10:27:49;8.40;;;2.47;;
52674;SDS011;38569;52.722;6.440;2023-05-24T10:33:25;6.55;;;2.42;;
52674;SDS011;38569;52.722;6.440;2023-05-24T10:35:52;7.50;;;3.08;;
52674;SDS011;38569;52.722;6.440;2023-05-24T10:38:19;9.38;;;2.85;;
52674;SDS011;38569;52.722;6.440;2023-05-24T10:40:47;7.50;;;2.85;;
52674;SDS011;38569;52.722;6.440;2023-05-24T10:43:13;8.15;;;2.85;;
52674;SDS011;38569;52.722;6.440;2023-05-24T10:45:41;7.03;;;2.40;;
52674;SDS011;38569;52.722;6.440;2023-05-24T10:50:37;10.40;;;2.80;;
52674;SDS011;38569;52.722;6.440;2023-05-24T10:53:17;8.25;;;3.05;;
52674;SDS011;38569;52.722;6.440;2023-05-24T10:56:00;8.23;;;2.83;;
52674;SDS011;38569;52.722;6.440;2023-05-24T11:01:01;10.63;;;2.75;;
52674;SDS011;38569;52.722;6.440;2023-05-24T11:03:31;7.97;;;3.15;;
52674;SDS011;38569;52.722;6.440;2023-05-24T11:05:57;5.78;;;2.83;;
52674;SDS011;38569;52.722;6.440;2023-05-24T11:08:30;7.80;;;2.65;;
52674;SDS011;38569;52.722;6.440;2023-05-24T11:13:36;7.13;;;2.40;;
52674;SDS011;38569;52.722;6.440;2023-05-24T11:16:06;9.13;;;3.47;;
52674;SDS011;38569;52.722;6.440;2023-05-24T11:18:32;6.70;;;2.75;;
52674;SDS011;38569;52.722;6.440;2023-05-24T11:21:03;10.45;;;3.50;;
52674;SDS011;38569;52.722;6.440;2023-05-24T11:23:30;8.10;;;3.10;;
52674;SDS011;38569;52.722;6.440;2023-05-24T11:25:56;9.90;;;3.22;;
52674;SDS011;38569;52.722;6.440;2023-05-24T11:28:22;14.63;;;3.63;;
52674;SDS011;38569;52.722;6.440;2023-05-24T11:30:48;7.50;;;2.85;;
52674;SDS011;38569;52.722;6.440;2023-05-24T11:33:15;8.80;;;3.00;;
52674;SDS011;38569;52.722;6.440;2023-05-24T11:35:43;5.68;;;2.60;;
52674;SDS011;38569;52.722;6.440;2023-05-24T11:38:09;9.93;;;3.85;;
52674;SDS011;38569;52.722;6.440;2023-05-24T11:40:42;7.90;;;3.03;;
52674;SDS011;38569;52.722;6.440;2023-05-24T11:43:10;9.07;;;3.58;;
52674;SDS011;38569;52.722;6.440;2023-05-24T11:45:40;6.45;;;2.38;;
52674;SDS011;38569;52.722;6.440;2023-05-24T11:48:07;9.75;;;2.60;;
52674;SDS011;38569;52.722;6.440;2023-05-24T11:50:41;5.10;;;3.03;;
52674;SDS011;38569;52.722;6.440;2023-05-24T11:53:08;9.73;;;2.55;;
52674;SDS011;38569;52.722;6.440;2023-05-24T11:55:35;6.18;;;2.38;;
52674;SDS011;38569;52.722;6.440;2023-05-24T11:58:01;7.70;;;3.15;;
52674;SDS011;38569;52.722;6.440;2023-05-24T12:00:30;6.95;;;2.42;;
52674;SDS011;38569;52.722;6.440;2023-05-24T12:02:56;12.30;;;2.80;;
52674;SDS011;38569;52.722;6.440;2023-05-24T12:05:31;11.63;;;2.50;;
52674;SDS011;38569;52.722;6.440;2023-05-24T12:08:00;6.97;;;2.47;;
52674;SDS011;38569;52.722;6.440;2023-05-24T12:10:42;9.43;;;3.13;;
52674;SDS011;38569;52.722;6.440;2023-05-24T12:13:21;8.80;;;3.70;;
52674;SDS011;38569;52.722;6.440;2023-05-24T12:15:50;9.43;;;2.97;;
52674;SDS011;38569;52.722;6.440;2023-05-24T12:18:20;9.43;;;3.60;;
52674;SDS011;38569;52.722;6.440;2023-05-24T12:20:48;7.40;;;3.13;;
52674;SDS011;38569;52.722;6.440;2023-05-24T12:23:15;10.90;;;3.33;;
52674;SDS011;38569;52.722;6.440;2023-05-24T12:25:43;9.27;;;3.35;;
52674;SDS011;38569;52.722;6.440;2023-05-24T12:28:08;8.10;;;2.67;;
52674;SDS011;38569;52.722;6.440;2023-05-24T12:30:36;7.50;;;2.80;;
52674;SDS011;38569;52.722;6.440;2023-05-24T12:33:07;8.60;;;3.20;;
52674;SDS011;38569;52.722;6.440;2023-05-24T12:35:36;9.20;;;2.88;;
52674;SDS011;38569;52.722;6.440;2023-05-24T12:38:07;6.78;;;2.45;;
52674;SDS011;38569;52.722;6.440;2023-05-24T12:40:34;11.80;;;3.75;;
52674;SDS011;38569;52.722;6.440;2023-05-24T12:43:00;8.65;;;2.85;;
52674;SDS011;38569;52.722;6.440;2023-05-24T12:45:27;8.82;;;2.88;;
52674;SDS011;38569;52.722;6.440;2023-05-24T12:47:54;12.05;;;2.60;;
52674;SDS011;38569;52.722;6.440;2023-05-24T12:50:22;10.80;;;3.20;;
52674;SDS011;38569;52.722;6.440;2023-05-24T12:52:50;9.25;;;2.95;;
52674;SDS011;38569;52.722;6.440;2023-05-24T12:55:23;9.43;;;3.28;;
52674;SDS011;38569;52.722;6.440;2023-05-24T12:57:51;7.65;;;2.15;;
52674;SDS011;38569;52.722;6.440;2023-05-24T13:00:19;7.93;;;2.47;;
52674;SDS011;38569;52.722;6.440;2023-05-24T13:02:45;9.23;;;3.28;;
52674;SDS011;38569;52.722;6.440;2023-05-24T13:05:11;8.85;;;2.95;;
52674;SDS011;38569;52.722;6.440;2023-05-24T13:07:37;9.65;;;3.35;;
52674;SDS011;38569;52.722;6.440;2023-05-24T13:10:04;9.95;;;3.30;;
52674;SDS011;38569;52.722;6.440;2023-05-24T13:12:31;11.80;;;3.30;;
52674;SDS011;38569;52.722;6.440;2023-05-24T13:15:00;12.93;;;3.70;;
52674;SDS011;38569;52.722;6.440;2023-05-24T13:17:26;13.98;;;3.53;;
52674;SDS011;38569;52.722;6.440;2023-05-24T13:19:54;9.27;;;2.97;;
52674;SDS011;38569;52.722;6.440;2023-05-24T13:22:23;9.90;;;3.60;;
52674;SDS011;38569;52.722;6.440;2023-05-24T13:24:49;8.40;;;3.05;;
52674;SDS011;38569;52.722;6.440;2023-05-24T13:27:15;8.60;;;3.25;;
52674;SDS011;38569;52.722;6.440;2023-05-24T13:29:41;12.32;;;3.17;;
52674;SDS011;38569;52.722;6.440;2023-05-24T13:32:08;9.70;;;3.63;;
52674;SDS011;38569;52.722;6.440;2023-05-24T13:34:34;6.38;;;2.17;;
52674;SDS011;38569;52.722;6.440;2023-05-24T13:37:01;9.85;;;2.90;;
52674;SDS011;38569;52.722;6.440;2023-05-24T13:39:27;6.72;;;3.38;;
52674;SDS011;38569;52.722;6.440;2023-05-24T13:41:53;8.55;;;2.90;;
52674;SDS011;38569;52.722;6.440;2023-05-24T13:44:19;12.68;;;3.72;;
52674;SDS011;38569;52.722;6.440;2023-05-24T13:46:46;11.95;;;3.60;;
52674;SDS011;38569;52.722;6.440;2023-05-24T13:49:13;7.68;;;2.92;;
52674;SDS011;38569;52.722;6.440;2023-05-24T13:51:40;9.50;;;3.45;;
52674;SDS011;38569;52.722;6.440;2023-05-24T13:54:06;8.57;;;3.03;;
52674;SDS011;38569;52.722;6.440;2023-05-24T13:56:32;14.48;;;3.05;;
52674;SDS011;38569;52.722;6.440;2023-05-24T13:59:01;14.73;;;3.65;;
52674;SDS011;38569;52.722;6.440;2023-05-24T14:01:28;12.85;;;3.25;;
52674;SDS011;38569;52.722;6.440;2023-05-24T14:03:54;13.48;;;3.53;;
52674;SDS011;38569;52.722;6.440;2023-05-24T14:06:20;15.98;;;3.67;;
52674;SDS011;38569;52.722;6.440;2023-05-24T14:08:47;10.20;;;3.17;;
52674;SDS011;38569;52.722;6.440;2023-05-24T14:11:13;12.15;;;3.55;;
52674;SDS011;38569;52.722;6.440;2023-05-24T14:13:40;8.35;;;3.17;;
52674;SDS011;38569;52.722;6.440;2023-05-24T14:16:06;9.00;;;2.95;;
52674;SDS011;38569;52.722;6.440;2023-05-24T14:18:33;9.52;;;3.25;;
52674;SDS011;38569;52.722;6.440;2023-05-24T14:20:59;8.15;;;2.50;;
52674;SDS011;38569;52.722;6.440;2023-05-24T14:23:25;18.98;;;4.43;;
52674;SDS011;38569;52.722;6.440;2023-05-24T14:25:51;9.07;;;2.30;;
52674;SDS011;38569;52.722;6.440;2023-05-24T14:28:18;10.95;;;4.15;;
52674;SDS011;38569;52.722;6.440;2023-05-24T14:30:44;9.90;;;3.13;;
52674;SDS011;38569;52.722;6.440;2023-05-24T14:33:10;9.88;;;3.28;;
52674;SDS011;38569;52.722;6.440;2023-05-24T14:35:36;10.70;;;3.20;;
52674;SDS011;38569;52.722;6.440;2023-05-24T14:38:04;10.93;;;3.17;;
52674;SDS011;38569;52.722;6.440;2023-05-24T14:40:35;10.05;;;2.70;;
52674;SDS011;38569;52.722;6.440;2023-05-24T14:43:04;10.02;;;3.63;;
52674;SDS011;38569;52.722;6.440;2023-05-24T14:45:31;5.97;;;2.63;;
52674;SDS011;38569;52.722;6.440;2023-05-24T14:47:57;9.40;;;3.28;;
52674;SDS011;38569;52.722;6.440;2023-05-24T14:50:24;5.35;;;1.90;;
52674;SDS011;38569;52.722;6.440;2023-05-24T14:52:51;11.30;;;2.50;;
52674;SDS011;38569;52.722;6.440;2023-05-24T14:55:17;10.18;;;2.67;;
52674;SDS011;38569;52.722;6.440;2023-05-24T14:57:42;8.43;;;2.60;;